sensor_id;sensor_type;location;lat;lon;timestamp;P1;durP1;ratioP1;P2;durP2;ratioP2
16296;SDS011;8256;56.144;13.394;2022-11-15T00:00:32;1.90;;;0.63;;
16296;SDS011;8256;56.144;13.394;2022-11-15T00:03:19;4.95;;;1.55;;
16296;SDS011;8256;56.144;13.394;2022-11-15T00:06:06;2.33;;;0.80;;
16296;SDS011;8256;56.144;13.394;2022-11-15T00:08:52;1.35;;;0.43;;
16296;SDS011;8256;56.144;13.394;2022-11-15T00:11:37;4.10;;;0.85;;
16296;SDS011;8256;56.144;13.394;2022-11-15T00:14:23;1.67;;;0.68;;
16296;SDS011;8256;56.144;13.394;2022-11-15T00:17:09;1.45;;;0.55;;
16296;SDS011;8256;56.144;13.394;2022-11-15T00:19:54;5.07;;;1.80;;
16296;SDS011;8256;56.144;13.394;2022-11-15T00:22:40;1.63;;;0.75;;
16296;SDS011;8256;56.144;13.394;2022-11-15T00:25:26;5.32;;;2.17;;
16296;SDS011;8256;56.144;13.394;2022-11-15T00:28:12;2.83;;;1.27;;
16296;SDS011;8256;56.144;13.394;2022-11-15T00:31:06;2.30;;;1.42;;
16296;SDS011;8256;56.144;13.394;2022-11-15T00:33:52;4.27;;;2.10;;
16296;SDS011;8256;56.144;13.394;2022-11-15T00:36:38;1.77;;;0.68;;
16296;SDS011;8256;56.144;13.394;2022-11-15T00:39:24;1.75;;;0.60;;
16296;SDS011;8256;56.144;13.394;2022-11-15T00:42:09;5.38;;;2.08;;
16296;SDS011;8256;56.144;13.394;2022-11-15T00:44:55;4.82;;;1.05;;
16296;SDS011;8256;56.144;13.394;2022-11-15T00:47:43;4.77;;;2.17;;
16296;SDS011;8256;56.144;13.394;2022-11-15T00:50:30;4.22;;;1.50;;
16296;SDS011;8256;56.144;13.394;2022-11-15T00:53:16;3.00;;;1.33;;
16296;SDS011;8256;56.144;13.394;2022-11-15T00:56:02;1.98;;;0.85;;
16296;SDS011;8256;56.144;13.394;2022-11-15T00:58:48;1.33;;;0.57;;
16296;SDS011;8256;56.144;13.394;2022-11-15T01:01:33;1.67;;;0.60;;
16296;SDS011;8256;56.144;13.394;2022-11-15T01:04:19;2.63;;;1.10;;
16296;SDS011;8256;56.144;13.394;2022-11-15T01:07:05;3.30;;;1.30;;
16296;SDS011;8256;56.144;13.394;2022-11-15T01:09:50;3.80;;;1.42;;
16296;SDS011;8256;56.144;13.394;2022-11-15T01:12:36;2.88;;;0.80;;
16296;SDS011;8256;56.144;13.394;2022-11-15T01:15:22;1.83;;;1.03;;
16296;SDS011;8256;56.144;13.394;2022-11-15T01:18:07;4.65;;;1.65;;
16296;SDS011;8256;56.144;13.394;2022-11-15T01:20:53;2.00;;;0.65;;
16296;SDS011;8256;56.144;13.394;2022-11-15T01:23:39;2.83;;;1.02;;
16296;SDS011;8256;56.144;13.394;2022-11-15T01:26:24;2.33;;;1.25;;
16296;SDS011;8256;56.144;13.394;2022-11-15T01:29:10;3.20;;;1.67;;
16296;SDS011;8256;56.144;13.394;2022-11-15T01:31:56;2.63;;;0.88;;
16296;SDS011;8256;56.144;13.394;2022-11-15T01:34:41;4.20;;;1.80;;
16296;SDS011;8256;56.144;13.394;2022-11-15T01:37:27;8.32;;;1.10;;
16296;SDS011;8256;56.144;13.394;2022-11-15T01:40:13;3.90;;;1.88;;
16296;SDS011;8256;56.144;13.394;2022-11-15T01:42:58;2.07;;;0.70;;
16296;SDS011;8256;56.144;13.394;2022-11-15T01:45:44;1.98;;;1.10;;
16296;SDS011;8256;56.144;13.394;2022-11-15T01:48:33;2.45;;;1.13;;
16296;SDS011;8256;56.144;13.394;2022-11-15T01:51:20;3.30;;;1.27;;
16296;SDS011;8256;56.144;13.394;2022-11-15T01:54:08;5.38;;;2.08;;
16296;SDS011;8256;56.144;13.394;2022-11-15T01:56:59;1.40;;;0.90;;
16296;SDS011;8256;56.144;13.394;2022-11-15T01:59:48;1.83;;;0.63;;
16296;SDS011;8256;56.144;13.394;2022-11-15T02:02:33;4.47;;;1.35;;
16296;SDS011;8256;56.144;13.394;2022-11-15T02:05:21;1.73;;;0.80;;
16296;SDS011;8256;56.144;13.394;2022-11-15T02:08:06;4.25;;;2.30;;
16296;SDS011;8256;56.144;13.394;2022-11-15T02:10:53;2.90;;;1.30;;
16296;SDS011;8256;56.144;13.394;2022-11-15T02:13:39;4.38;;;1.58;;
16296;SDS011;8256;56.144;13.394;2022-11-15T02:32:48;3.55;;;1.13;;
16296;SDS011;8256;56.144;13.394;2022-11-15T02:35:44;2.78;;;0.82;;
16296;SDS011;8256;56.144;13.394;2022-11-15T02:38:52;4.50;;;1.35;;
16296;SDS011;8256;56.144;13.394;2022-11-15T02:41:42;1.93;;;1.03;;
16296;SDS011;8256;56.144;13.394;2022-11-15T02:44:35;3.95;;;2.10;;
16296;SDS011;8256;56.144;13.394;2022-11-15T02:47:23;4.15;;;1.25;;
16296;SDS011;8256;56.144;13.394;2022-11-15T02:50:11;4.32;;;1.88;;
16296;SDS011;8256;56.144;13.394;2022-11-15T02:52:58;8.55;;;1.65;;
16296;SDS011;8256;56.144;13.394;2022-11-15T02:55:45;4.30;;;1.03;;
16296;SDS011;8256;56.144;13.394;2022-11-15T02:58:40;2.60;;;0.95;;
16296;SDS011;8256;56.144;13.394;2022-11-15T03:07:33;4.35;;;1.15;;
16296;SDS011;8256;56.144;13.394;2022-11-15T03:10:29;5.00;;;1.63;;
16296;SDS011;8256;56.144;13.394;2022-11-15T03:13:26;2.20;;;1.15;;
16296;SDS011;8256;56.144;13.394;2022-11-15T03:19:12;2.85;;;1.40;;
16296;SDS011;8256;56.144;13.394;2022-11-15T03:21:59;5.50;;;1.25;;
16296;SDS011;8256;56.144;13.394;2022-11-15T03:24:47;2.90;;;1.33;;
16296;SDS011;8256;56.144;13.394;2022-11-15T03:27:41;5.95;;;2.88;;
16296;SDS011;8256;56.144;13.394;2022-11-15T03:30:30;3.28;;;0.93;;
16296;SDS011;8256;56.144;13.394;2022-11-15T03:33:17;5.38;;;0.95;;
16296;SDS011;8256;56.144;13.394;2022-11-15T03:36:05;3.58;;;1.92;;
16296;SDS011;8256;56.144;13.394;2022-11-15T03:38:53;1.00;;;0.30;;
16296;SDS011;8256;56.144;13.394;2022-11-15T03:41:40;3.58;;;1.48;;
16296;SDS011;8256;56.144;13.394;2022-11-15T03:47:43;2.17;;;1.08;;
16296;SDS011;8256;56.144;13.394;2022-11-15T03:50:32;2.40;;;1.13;;
16296;SDS011;8256;56.144;13.394;2022-11-15T03:53:19;5.77;;;2.40;;
16296;SDS011;8256;56.144;13.394;2022-11-15T03:56:04;2.45;;;1.63;;
16296;SDS011;8256;56.144;13.394;2022-11-15T03:58:50;3.53;;;1.70;;
16296;SDS011;8256;56.144;13.394;2022-11-15T04:01:36;2.85;;;1.25;;
16296;SDS011;8256;56.144;13.394;2022-11-15T04:04:21;2.47;;;1.05;;
16296;SDS011;8256;56.144;13.394;2022-11-15T04:07:07;4.73;;;1.80;;
16296;SDS011;8256;56.144;13.394;2022-11-15T04:09:53;3.70;;;1.55;;
16296;SDS011;8256;56.144;13.394;2022-11-15T04:12:47;6.00;;;1.45;;
16296;SDS011;8256;56.144;13.394;2022-11-15T04:15:33;2.28;;;1.23;;
16296;SDS011;8256;56.144;13.394;2022-11-15T04:18:19;3.38;;;1.70;;
16296;SDS011;8256;56.144;13.394;2022-11-15T04:21:05;2.07;;;1.23;;
16296;SDS011;8256;56.144;13.394;2022-11-15T04:24:09;2.45;;;0.60;;
16296;SDS011;8256;56.144;13.394;2022-11-15T04:26:58;2.47;;;1.50;;
16296;SDS011;8256;56.144;13.394;2022-11-15T04:29:44;4.10;;;1.85;;
16296;SDS011;8256;56.144;13.394;2022-11-15T04:32:29;4.63;;;2.38;;
16296;SDS011;8256;56.144;13.394;2022-11-15T04:35:15;1.47;;;0.60;;
16296;SDS011;8256;56.144;13.394;2022-11-15T04:38:01;2.30;;;1.10;;
16296;SDS011;8256;56.144;13.394;2022-11-15T04:40:48;3.63;;;1.38;;
16296;SDS011;8256;56.144;13.394;2022-11-15T04:43:34;4.43;;;2.15;;
16296;SDS011;8256;56.144;13.394;2022-11-15T04:46:19;3.28;;;1.02;;
16296;SDS011;8256;56.144;13.394;2022-11-15T04:49:05;2.13;;;1.27;;
16296;SDS011;8256;56.144;13.394;2022-11-15T04:51:51;2.13;;;1.10;;
16296;SDS011;8256;56.144;13.394;2022-11-15T04:54:36;3.13;;;1.45;;
16296;SDS011;8256;56.144;13.394;2022-11-15T04:57:22;5.53;;;2.58;;
16296;SDS011;8256;56.144;13.394;2022-11-15T05:00:09;2.30;;;1.20;;
16296;SDS011;8256;56.144;13.394;2022-11-15T05:02:56;7.30;;;1.43;;
16296;SDS011;8256;56.144;13.394;2022-11-15T05:06:00;3.88;;;1.73;;
16296;SDS011;8256;56.144;13.394;2022-11-15T05:08:46;2.13;;;1.05;;
16296;SDS011;8256;56.144;13.394;2022-11-15T05:11:32;3.33;;;1.27;;
16296;SDS011;8256;56.144;13.394;2022-11-15T05:14:18;1.80;;;0.77;;
16296;SDS011;8256;56.144;13.394;2022-11-15T05:17:03;4.87;;;2.03;;
16296;SDS011;8256;56.144;13.394;2022-11-15T05:19:49;4.97;;;1.02;;
16296;SDS011;8256;56.144;13.394;2022-11-15T05:22:37;3.58;;;1.35;;
16296;SDS011;8256;56.144;13.394;2022-11-15T05:25:23;2.97;;;1.63;;
16296;SDS011;8256;56.144;13.394;2022-11-15T05:28:09;3.17;;;1.35;;
16296;SDS011;8256;56.144;13.394;2022-11-15T05:31:04;3.30;;;1.67;;
16296;SDS011;8256;56.144;13.394;2022-11-15T05:33:54;2.38;;;1.00;;
16296;SDS011;8256;56.144;13.394;2022-11-15T05:36:41;3.60;;;1.77;;
16296;SDS011;8256;56.144;13.394;2022-11-15T05:39:28;6.50;;;2.90;;
16296;SDS011;8256;56.144;13.394;2022-11-15T05:42:14;5.50;;;2.65;;
16296;SDS011;8256;56.144;13.394;2022-11-15T05:45:01;2.93;;;1.07;;
16296;SDS011;8256;56.144;13.394;2022-11-15T05:47:48;3.65;;;1.42;;
16296;SDS011;8256;56.144;13.394;2022-11-15T05:50:36;6.53;;;1.73;;
16296;SDS011;8256;56.144;13.394;2022-11-15T05:53:22;4.38;;;2.53;;
16296;SDS011;8256;56.144;13.394;2022-11-15T05:56:08;4.45;;;1.73;;
16296;SDS011;8256;56.144;13.394;2022-11-15T05:58:54;2.97;;;1.77;;
16296;SDS011;8256;56.144;13.394;2022-11-15T06:01:41;2.85;;;1.55;;
16296;SDS011;8256;56.144;13.394;2022-11-15T06:04:27;2.03;;;1.08;;
16296;SDS011;8256;56.144;13.394;2022-11-15T06:07:12;2.45;;;1.40;;
16296;SDS011;8256;56.144;13.394;2022-11-15T06:09:58;3.28;;;0.95;;
16296;SDS011;8256;56.144;13.394;2022-11-15T06:12:44;2.57;;;0.97;;
16296;SDS011;8256;56.144;13.394;2022-11-15T06:15:29;2.15;;;0.80;;
16296;SDS011;8256;56.144;13.394;2022-11-15T06:18:17;3.63;;;1.08;;
16296;SDS011;8256;56.144;13.394;2022-11-15T06:21:03;3.75;;;1.75;;
16296;SDS011;8256;56.144;13.394;2022-11-15T06:23:49;2.55;;;1.33;;
16296;SDS011;8256;56.144;13.394;2022-11-15T06:26:34;1.70;;;0.63;;
16296;SDS011;8256;56.144;13.394;2022-11-15T06:29:20;3.00;;;1.40;;
16296;SDS011;8256;56.144;13.394;2022-11-15T06:32:06;2.95;;;1.15;;
16296;SDS011;8256;56.144;13.394;2022-11-15T06:34:51;3.42;;;1.77;;
16296;SDS011;8256;56.144;13.394;2022-11-15T06:37:37;5.53;;;2.10;;
16296;SDS011;8256;56.144;13.394;2022-11-15T06:40:23;5.23;;;2.23;;
16296;SDS011;8256;56.144;13.394;2022-11-15T06:43:08;3.20;;;1.13;;
16296;SDS011;8256;56.144;13.394;2022-11-15T06:45:54;3.67;;;1.58;;
16296;SDS011;8256;56.144;13.394;2022-11-15T06:48:40;2.83;;;1.20;;
16296;SDS011;8256;56.144;13.394;2022-11-15T06:51:25;3.55;;;1.00;;
16296;SDS011;8256;56.144;13.394;2022-11-15T06:54:11;5.47;;;2.33;;
16296;SDS011;8256;56.144;13.394;2022-11-15T06:56:57;2.47;;;1.05;;
16296;SDS011;8256;56.144;13.394;2022-11-15T06:59:42;3.72;;;1.98;;
16296;SDS011;8256;56.144;13.394;2022-11-15T07:02:28;2.28;;;0.95;;
16296;SDS011;8256;56.144;13.394;2022-11-15T07:05:14;2.05;;;0.95;;
16296;SDS011;8256;56.144;13.394;2022-11-15T07:08:00;2.90;;;1.30;;
16296;SDS011;8256;56.144;13.394;2022-11-15T07:10:46;6.47;;;2.85;;
16296;SDS011;8256;56.144;13.394;2022-11-15T07:13:32;6.00;;;2.38;;
16296;SDS011;8256;56.144;13.394;2022-11-15T07:16:18;2.58;;;1.05;;
16296;SDS011;8256;56.144;13.394;2022-11-15T07:19:04;2.58;;;1.08;;
16296;SDS011;8256;56.144;13.394;2022-11-15T07:21:49;4.20;;;1.53;;
16296;SDS011;8256;56.144;13.394;2022-11-15T07:24:35;3.17;;;1.42;;
16296;SDS011;8256;56.144;13.394;2022-11-15T07:27:21;4.50;;;1.42;;
16296;SDS011;8256;56.144;13.394;2022-11-15T07:30:06;4.15;;;1.50;;
16296;SDS011;8256;56.144;13.394;2022-11-15T07:32:56;2.35;;;1.20;;
16296;SDS011;8256;56.144;13.394;2022-11-15T07:35:42;4.03;;;1.37;;
16296;SDS011;8256;56.144;13.394;2022-11-15T07:38:28;4.10;;;2.03;;
16296;SDS011;8256;56.144;13.394;2022-11-15T07:41:14;2.65;;;1.33;;
16296;SDS011;8256;56.144;13.394;2022-11-15T07:44:00;4.80;;;1.70;;
16296;SDS011;8256;56.144;13.394;2022-11-15T07:46:46;2.40;;;1.00;;
16296;SDS011;8256;56.144;13.394;2022-11-15T07:49:32;1.40;;;0.67;;
16296;SDS011;8256;56.144;13.394;2022-11-15T07:52:18;6.63;;;1.58;;
16296;SDS011;8256;56.144;13.394;2022-11-15T07:55:03;4.50;;;1.48;;
16296;SDS011;8256;56.144;13.394;2022-11-15T07:57:49;3.50;;;1.65;;
16296;SDS011;8256;56.144;13.394;2022-11-15T08:00:35;4.22;;;1.13;;
16296;SDS011;8256;56.144;13.394;2022-11-15T08:03:21;1.33;;;0.47;;
16296;SDS011;8256;56.144;13.394;2022-11-15T08:06:07;1.50;;;0.70;;
16296;SDS011;8256;56.144;13.394;2022-11-15T08:08:53;3.80;;;1.75;;
16296;SDS011;8256;56.144;13.394;2022-11-15T08:11:38;3.90;;;1.90;;
16296;SDS011;8256;56.144;13.394;2022-11-15T08:14:24;4.80;;;1.23;;
16296;SDS011;8256;56.144;13.394;2022-11-15T08:17:09;3.23;;;1.30;;
16296;SDS011;8256;56.144;13.394;2022-11-15T08:19:55;3.30;;;1.70;;
16296;SDS011;8256;56.144;13.394;2022-11-15T08:22:41;4.90;;;2.42;;
16296;SDS011;8256;56.144;13.394;2022-11-15T08:25:27;3.63;;;1.38;;
16296;SDS011;8256;56.144;13.394;2022-11-15T08:28:15;2.95;;;1.08;;
16296;SDS011;8256;56.144;13.394;2022-11-15T08:31:02;2.77;;;1.30;;
16296;SDS011;8256;56.144;13.394;2022-11-15T08:33:48;2.00;;;0.93;;
16296;SDS011;8256;56.144;13.394;2022-11-15T08:36:34;3.53;;;1.90;;
16296;SDS011;8256;56.144;13.394;2022-11-15T08:39:19;3.30;;;1.27;;
16296;SDS011;8256;56.144;13.394;2022-11-15T08:42:05;2.55;;;1.20;;
16296;SDS011;8256;56.144;13.394;2022-11-15T08:44:50;4.60;;;1.63;;
16296;SDS011;8256;56.144;13.394;2022-11-15T08:47:36;2.28;;;1.00;;
16296;SDS011;8256;56.144;13.394;2022-11-15T08:50:22;4.47;;;0.85;;
16296;SDS011;8256;56.144;13.394;2022-11-15T08:53:07;2.70;;;0.82;;
16296;SDS011;8256;56.144;13.394;2022-11-15T08:55:53;3.47;;;1.13;;
16296;SDS011;8256;56.144;13.394;2022-11-15T08:58:39;4.10;;;2.33;;
16296;SDS011;8256;56.144;13.394;2022-11-15T09:01:25;2.05;;;0.57;;
16296;SDS011;8256;56.144;13.394;2022-11-15T09:04:11;3.67;;;1.85;;
16296;SDS011;8256;56.144;13.394;2022-11-15T09:06:56;3.85;;;1.67;;
16296;SDS011;8256;56.144;13.394;2022-11-15T09:09:42;1.35;;;0.70;;
16296;SDS011;8256;56.144;13.394;2022-11-15T09:12:28;3.47;;;1.07;;
16296;SDS011;8256;56.144;13.394;2022-11-15T09:15:14;2.45;;;1.15;;
16296;SDS011;8256;56.144;13.394;2022-11-15T09:18:00;2.80;;;1.38;;
16296;SDS011;8256;56.144;13.394;2022-11-15T09:20:46;2.78;;;1.00;;
16296;SDS011;8256;56.144;13.394;2022-11-15T09:23:31;4.18;;;1.92;;
16296;SDS011;8256;56.144;13.394;2022-11-15T09:26:17;1.73;;;0.67;;
16296;SDS011;8256;56.144;13.394;2022-11-15T09:29:03;5.20;;;1.45;;
16296;SDS011;8256;56.144;13.394;2022-11-15T09:31:48;2.13;;;1.00;;
16296;SDS011;8256;56.144;13.394;2022-11-15T09:34:37;2.17;;;0.95;;
16296;SDS011;8256;56.144;13.394;2022-11-15T09:37:23;1.83;;;0.75;;
16296;SDS011;8256;56.144;13.394;2022-11-15T09:40:09;2.47;;;0.73;;
16296;SDS011;8256;56.144;13.394;2022-11-15T09:46:39;1.00;;;0.30;;
16296;SDS011;8256;56.144;13.394;2022-11-15T09:49:32;2.13;;;0.68;;
16296;SDS011;8256;56.144;13.394;2022-11-15T09:52:18;5.80;;;1.98;;
16296;SDS011;8256;56.144;13.394;2022-11-15T09:55:04;6.70;;;1.03;;
16296;SDS011;8256;56.144;13.394;2022-11-15T09:57:54;2.85;;;1.13;;
16296;SDS011;8256;56.144;13.394;2022-11-15T10:00:49;4.65;;;1.80;;
16296;SDS011;8256;56.144;13.394;2022-11-15T10:03:38;3.92;;;1.23;;
16296;SDS011;8256;56.144;13.394;2022-11-15T10:06:27;1.95;;;1.05;;
16296;SDS011;8256;56.144;13.394;2022-11-15T10:09:14;3.93;;;1.20;;
16296;SDS011;8256;56.144;13.394;2022-11-15T10:12:03;2.60;;;0.93;;
16296;SDS011;8256;56.144;13.394;2022-11-15T10:14:50;2.28;;;1.08;;
16296;SDS011;8256;56.144;13.394;2022-11-15T10:23:43;2.17;;;0.60;;
16296;SDS011;8256;56.144;13.394;2022-11-15T10:26:29;1.40;;;0.52;;
16296;SDS011;8256;56.144;13.394;2022-11-15T10:29:19;2.08;;;0.95;;
16296;SDS011;8256;56.144;13.394;2022-11-15T10:32:05;3.53;;;1.55;;
16296;SDS011;8256;56.144;13.394;2022-11-15T10:34:51;1.75;;;0.77;;
16296;SDS011;8256;56.144;13.394;2022-11-15T10:37:37;3.20;;;0.93;;
16296;SDS011;8256;56.144;13.394;2022-11-15T10:40:23;2.83;;;1.33;;
16296;SDS011;8256;56.144;13.394;2022-11-15T10:45:54;2.85;;;0.85;;
16296;SDS011;8256;56.144;13.394;2022-11-15T10:48:40;1.65;;;0.45;;
16296;SDS011;8256;56.144;13.394;2022-11-15T10:51:27;2.97;;;1.17;;
16296;SDS011;8256;56.144;13.394;2022-11-15T10:54:14;1.90;;;0.98;;
16296;SDS011;8256;56.144;13.394;2022-11-15T11:00:05;3.80;;;1.30;;
16296;SDS011;8256;56.144;13.394;2022-11-15T11:03:20;2.33;;;0.65;;
16296;SDS011;8256;56.144;13.394;2022-11-15T11:06:20;1.07;;;0.47;;
16296;SDS011;8256;56.144;13.394;2022-11-15T11:09:09;2.38;;;0.90;;
16296;SDS011;8256;56.144;13.394;2022-11-15T11:12:09;1.75;;;0.88;;
16296;SDS011;8256;56.144;13.394;2022-11-15T11:14:56;1.60;;;0.88;;
16296;SDS011;8256;56.144;13.394;2022-11-15T11:18:05;2.53;;;0.70;;
16296;SDS011;8256;56.144;13.394;2022-11-15T11:20:53;2.07;;;0.50;;
16296;SDS011;8256;56.144;13.394;2022-11-15T11:23:45;2.05;;;0.50;;
16296;SDS011;8256;56.144;13.394;2022-11-15T11:26:40;2.03;;;1.05;;
16296;SDS011;8256;56.144;13.394;2022-11-15T11:32:57;2.35;;;0.40;;
16296;SDS011;8256;56.144;13.394;2022-11-15T11:35:59;1.33;;;0.60;;
16296;SDS011;8256;56.144;13.394;2022-11-15T11:38:51;1.55;;;0.50;;
16296;SDS011;8256;56.144;13.394;2022-11-15T11:42:01;2.65;;;0.82;;
16296;SDS011;8256;56.144;13.394;2022-11-15T11:51:08;2.23;;;0.93;;
16296;SDS011;8256;56.144;13.394;2022-11-15T11:54:21;3.47;;;1.60;;
16296;SDS011;8256;56.144;13.394;2022-11-15T11:57:13;1.95;;;0.88;;
16296;SDS011;8256;56.144;13.394;2022-11-15T12:00:29;4.43;;;0.95;;
16296;SDS011;8256;56.144;13.394;2022-11-15T12:03:23;2.05;;;0.55;;
16296;SDS011;8256;56.144;13.394;2022-11-15T12:09:17;1.63;;;0.68;;
16296;SDS011;8256;56.144;13.394;2022-11-15T12:12:17;2.45;;;0.93;;
16296;SDS011;8256;56.144;13.394;2022-11-15T12:17:55;2.42;;;0.85;;
16296;SDS011;8256;56.144;13.394;2022-11-15T12:20:47;1.37;;;0.47;;
16296;SDS011;8256;56.144;13.394;2022-11-15T12:24:17;2.13;;;0.57;;
16296;SDS011;8256;56.144;13.394;2022-11-15T12:27:09;2.65;;;1.25;;
16296;SDS011;8256;56.144;13.394;2022-11-15T12:30:08;1.42;;;0.50;;
16296;SDS011;8256;56.144;13.394;2022-11-15T12:32:58;2.75;;;0.95;;
16296;SDS011;8256;56.144;13.394;2022-11-15T12:35:44;2.17;;;0.97;;
16296;SDS011;8256;56.144;13.394;2022-11-15T12:39:02;2.72;;;0.95;;
16296;SDS011;8256;56.144;13.394;2022-11-15T12:47:26;2.13;;;1.15;;
16296;SDS011;8256;56.144;13.394;2022-11-15T12:50:12;1.67;;;0.53;;
16296;SDS011;8256;56.144;13.394;2022-11-15T12:59:01;1.88;;;0.65;;
16296;SDS011;8256;56.144;13.394;2022-11-15T13:01:55;2.33;;;1.05;;
16296;SDS011;8256;56.144;13.394;2022-11-15T13:04:43;1.50;;;0.57;;
16296;SDS011;8256;56.144;13.394;2022-11-15T13:13:15;1.08;;;0.30;;
16296;SDS011;8256;56.144;13.394;2022-11-15T13:16:30;1.35;;;0.32;;
16296;SDS011;8256;56.144;13.394;2022-11-15T13:19:16;2.77;;;0.97;;
16296;SDS011;8256;56.144;13.394;2022-11-15T13:22:08;1.30;;;0.55;;
16296;SDS011;8256;56.144;13.394;2022-11-15T13:31:14;1.45;;;0.63;;
16296;SDS011;8256;56.144;13.394;2022-11-15T13:40:25;1.02;;;0.38;;
16296;SDS011;8256;56.144;13.394;2022-11-15T13:46:12;3.78;;;1.25;;
16296;SDS011;8256;56.144;13.394;2022-11-15T13:49:04;1.07;;;0.40;;
16296;SDS011;8256;56.144;13.394;2022-11-15T13:51:56;0.73;;;0.20;;
16296;SDS011;8256;56.144;13.394;2022-11-15T13:54:47;3.28;;;0.68;;
16296;SDS011;8256;56.144;13.394;2022-11-15T13:57:41;2.45;;;0.70;;
16296;SDS011;8256;56.144;13.394;2022-11-15T14:00:34;0.73;;;0.20;;
16296;SDS011;8256;56.144;13.394;2022-11-15T14:03:24;0.40;;;0.10;;
16296;SDS011;8256;56.144;13.394;2022-11-15T14:06:12;1.00;;;0.40;;
16296;SDS011;8256;56.144;13.394;2022-11-15T14:11:56;0.50;;;0.10;;
16296;SDS011;8256;56.144;13.394;2022-11-15T14:14:46;0.57;;;0.10;;
16296;SDS011;8256;56.144;13.394;2022-11-15T14:23:26;0.52;;;0.10;;
16296;SDS011;8256;56.144;13.394;2022-11-15T14:26:26;0.95;;;0.40;;
16296;SDS011;8256;56.144;13.394;2022-11-15T14:29:48;0.80;;;0.15;;
16296;SDS011;8256;56.144;13.394;2022-11-15T14:32:28;0.67;;;0.20;;
16296;SDS011;8256;56.144;13.394;2022-11-15T14:35:16;0.52;;;0.10;;
16296;SDS011;8256;56.144;13.394;2022-11-15T14:38:04;1.20;;;0.55;;
16296;SDS011;8256;56.144;13.394;2022-11-15T14:40:49;0.40;;;0.10;;
16296;SDS011;8256;56.144;13.394;2022-11-15T14:43:35;1.13;;;0.32;;
16296;SDS011;8256;56.144;13.394;2022-11-15T14:46:21;0.70;;;0.20;;
16296;SDS011;8256;56.144;13.394;2022-11-15T14:49:06;1.05;;;0.40;;
16296;SDS011;8256;56.144;13.394;2022-11-15T14:51:52;0.75;;;0.20;;
16296;SDS011;8256;56.144;13.394;2022-11-15T14:54:38;1.27;;;0.40;;
16296;SDS011;8256;56.144;13.394;2022-11-15T14:57:23;1.35;;;0.20;;
16296;SDS011;8256;56.144;13.394;2022-11-15T15:00:09;0.40;;;0.10;;
16296;SDS011;8256;56.144;13.394;2022-11-15T15:02:55;0.45;;;0.10;;
16296;SDS011;8256;56.144;13.394;2022-11-15T15:05:42;0.50;;;0.10;;
16296;SDS011;8256;56.144;13.394;2022-11-15T15:08:28;0.70;;;0.20;;
16296;SDS011;8256;56.144;13.394;2022-11-15T15:11:15;0.80;;;0.30;;
16296;SDS011;8256;56.144;13.394;2022-11-15T15:14:12;0.47;;;0.10;;
16296;SDS011;8256;56.144;13.394;2022-11-15T15:17:02;1.13;;;0.30;;
16296;SDS011;8256;56.144;13.394;2022-11-15T15:19:47;1.38;;;0.60;;
16296;SDS011;8256;56.144;13.394;2022-11-15T15:22:33;0.40;;;0.10;;
16296;SDS011;8256;56.144;13.394;2022-11-15T15:25:23;0.43;;;0.10;;
16296;SDS011;8256;56.144;13.394;2022-11-15T15:28:14;0.83;;;0.37;;
16296;SDS011;8256;56.144;13.394;2022-11-15T15:30:59;0.40;;;0.10;;
16296;SDS011;8256;56.144;13.394;2022-11-15T15:33:45;0.95;;;0.28;;
16296;SDS011;8256;56.144;13.394;2022-11-15T15:36:31;0.38;;;0.08;;
16296;SDS011;8256;56.144;13.394;2022-11-15T15:39:16;0.80;;;0.20;;
16296;SDS011;8256;56.144;13.394;2022-11-15T15:42:02;0.60;;;0.10;;
16296;SDS011;8256;56.144;13.394;2022-11-15T15:44:49;0.70;;;0.20;;
16296;SDS011;8256;56.144;13.394;2022-11-15T15:47:35;0.52;;;0.10;;
16296;SDS011;8256;56.144;13.394;2022-11-15T15:50:28;1.55;;;0.80;;
16296;SDS011;8256;56.144;13.394;2022-11-15T15:53:15;0.68;;;0.10;;
16296;SDS011;8256;56.144;13.394;2022-11-15T15:56:01;1.30;;;0.37;;
16296;SDS011;8256;56.144;13.394;2022-11-15T15:58:47;0.93;;;0.38;;
16296;SDS011;8256;56.144;13.394;2022-11-15T16:01:33;0.88;;;0.13;;
16296;SDS011;8256;56.144;13.394;2022-11-15T16:04:18;1.40;;;0.40;;
16296;SDS011;8256;56.144;13.394;2022-11-15T16:07:04;0.75;;;0.30;;
16296;SDS011;8256;56.144;13.394;2022-11-15T16:09:50;0.40;;;0.10;;
16296;SDS011;8256;56.144;13.394;2022-11-15T16:12:45;3.38;;;0.30;;
16296;SDS011;8256;56.144;13.394;2022-11-15T16:15:31;0.40;;;0.10;;
16296;SDS011;8256;56.144;13.394;2022-11-15T16:18:17;0.60;;;0.20;;
16296;SDS011;8256;56.144;13.394;2022-11-15T16:21:03;1.58;;;0.50;;
16296;SDS011;8256;56.144;13.394;2022-11-15T16:23:48;0.80;;;0.20;;
16296;SDS011;8256;56.144;13.394;2022-11-15T16:26:34;0.70;;;0.30;;
16296;SDS011;8256;56.144;13.394;2022-11-15T16:29:20;0.65;;;0.20;;
16296;SDS011;8256;56.144;13.394;2022-11-15T16:32:06;1.15;;;0.40;;
16296;SDS011;8256;56.144;13.394;2022-11-15T16:34:51;0.50;;;0.10;;
16296;SDS011;8256;56.144;13.394;2022-11-15T16:37:37;0.60;;;0.10;;
16296;SDS011;8256;56.144;13.394;2022-11-15T16:40:29;0.65;;;0.10;;
16296;SDS011;8256;56.144;13.394;2022-11-15T16:43:16;0.40;;;0.05;;
16296;SDS011;8256;56.144;13.394;2022-11-15T16:46:06;0.30;;;0.00;;
16296;SDS011;8256;56.144;13.394;2022-11-15T16:48:53;0.40;;;0.10;;
16296;SDS011;8256;56.144;13.394;2022-11-15T16:51:44;0.33;;;0.10;;
16296;SDS011;8256;56.144;13.394;2022-11-15T16:54:30;0.32;;;0.03;;
16296;SDS011;8256;56.144;13.394;2022-11-15T16:57:16;0.75;;;0.20;;
16296;SDS011;8256;56.144;13.394;2022-11-15T17:00:03;0.50;;;0.10;;
16296;SDS011;8256;56.144;13.394;2022-11-15T17:02:49;0.57;;;0.17;;
16296;SDS011;8256;56.144;13.394;2022-11-15T17:05:35;0.60;;;0.10;;
16296;SDS011;8256;56.144;13.394;2022-11-15T17:08:21;0.30;;;0.10;;
16296;SDS011;8256;56.144;13.394;2022-11-15T17:11:08;0.30;;;0.10;;
16296;SDS011;8256;56.144;13.394;2022-11-15T17:13:58;0.30;;;0.00;;
16296;SDS011;8256;56.144;13.394;2022-11-15T17:16:44;0.30;;;0.10;;
16296;SDS011;8256;56.144;13.394;2022-11-15T17:19:29;0.50;;;0.20;;
16296;SDS011;8256;56.144;13.394;2022-11-15T17:22:15;0.35;;;0.05;;
16296;SDS011;8256;56.144;13.394;2022-11-15T17:25:01;0.40;;;0.10;;
16296;SDS011;8256;56.144;13.394;2022-11-15T17:27:48;0.30;;;0.00;;
16296;SDS011;8256;56.144;13.394;2022-11-15T17:30:33;0.65;;;0.10;;
16296;SDS011;8256;56.144;13.394;2022-11-15T17:33:20;0.30;;;0.07;;
16296;SDS011;8256;56.144;13.394;2022-11-15T17:36:06;0.47;;;0.10;;
16296;SDS011;8256;56.144;13.394;2022-11-15T17:38:55;0.30;;;0.00;;
16296;SDS011;8256;56.144;13.394;2022-11-15T17:41:41;0.30;;;0.10;;
16296;SDS011;8256;56.144;13.394;2022-11-15T17:44:27;0.38;;;0.10;;
16296;SDS011;8256;56.144;13.394;2022-11-15T17:47:12;0.20;;;0.00;;
16296;SDS011;8256;56.144;13.394;2022-11-15T17:49:58;0.30;;;0.00;;
16296;SDS011;8256;56.144;13.394;2022-11-15T17:52:44;0.30;;;0.00;;
16296;SDS011;8256;56.144;13.394;2022-11-15T17:55:31;0.40;;;0.10;;
16296;SDS011;8256;56.144;13.394;2022-11-15T17:58:16;0.30;;;0.00;;
16296;SDS011;8256;56.144;13.394;2022-11-15T18:01:48;0.30;;;0.10;;
16296;SDS011;8256;56.144;13.394;2022-11-15T18:04:15;1.02;;;0.20;;
16296;SDS011;8256;56.144;13.394;2022-11-15T18:07:01;0.20;;;0.00;;
16296;SDS011;8256;56.144;13.394;2022-11-15T18:09:47;0.20;;;0.00;;
16296;SDS011;8256;56.144;13.394;2022-11-15T18:12:33;0.28;;;0.00;;
16296;SDS011;8256;56.144;13.394;2022-11-15T18:15:19;0.40;;;0.07;;
16296;SDS011;8256;56.144;13.394;2022-11-15T18:18:05;0.50;;;0.10;;
16296;SDS011;8256;56.144;13.394;2022-11-15T18:20:57;0.30;;;0.00;;
16296;SDS011;8256;56.144;13.394;2022-11-15T18:23:55;0.35;;;0.10;;
16296;SDS011;8256;56.144;13.394;2022-11-15T18:26:42;0.30;;;0.00;;
16296;SDS011;8256;56.144;13.394;2022-11-15T18:29:27;0.20;;;0.00;;
16296;SDS011;8256;56.144;13.394;2022-11-15T18:32:13;0.30;;;0.00;;
16296;SDS011;8256;56.144;13.394;2022-11-15T18:35:02;0.10;;;0.00;;